Bordeaux-Mérignac Airport

LFBD · Gironde, Nouvelle-Aquitaine, 法国

罗盘
风向 的 风向 110° Bordeaux-Mérignac Airport 5/23
风: 4 kt, 2 beaufort

2 kt

4 kt
改变
0 1.000 2.000 3.000 4.000 5.000
没有观察到明显的云
METAR LFBD 050130Z AUTO 11004KT 8000 NSC 03/02 Q1015 TEMPO 0500 FG VV///

METAR Bordeaux-Mérignac Airport - LFBD/BOD

Bordeaux-Mérignac Airport是,法国中的大型机场。 该机场有2条跑道: 5/23 和 11/29. 该领域的国际民航组织标志是LFBD 它的国际航空运输协会代码是BOD.

这份报告是针对2022年12月5日 02:30, 当地时间在Bordeaux-Mérignac Airport进行的。

机场观察

风向为110°,速度为4 kt。

可见度为8 km。

有没有观察到明显的云。 没有观察到天花板。

温度为3 °C,阵风为-1 °C。 露点为2 °C,相对湿度为93%。 海平面上的气压为1015 hPa (QNH)。

发展趋势

  • 暂时的

    可变方向的风很小或没有。 可见性变为500 m。 重大天气:多雾路段。 垂直能见度.

白天

今天,太阳从08:24升起,在17:22降落。 这适用于Bordeaux-Mérignac Airport,世界夏令时可能有所不同。 当地时间与世界标准时间之间的时差为+1 小时。 当前,没有夏令时有效。

公司介绍

在这个机场,你可以找到飞行俱乐部。 本场上唯一已知的公司是CAPAM。

体会

到Vliegles.nl去找飞行课程,跳伞和其他飞行体验。 浏览页面,了解Bordeaux-Mérignac Airport附近所有可用的活动。 你也可以使用搜索功能来寻找你所在地附近的特定飞行课程、跳伞或其他飞行体验。

跑道

Id 标题 侧风 逆风 侧风 %
5/23 046°-226° 4 kt 2 kt 90 %
11/29 107°-287° 4 kt 5 %

逆风成分最大的方向会被突出显示,并用于横风计算。 这并不一定意味着这个方向在使用。

乌云

- NSC 没有观察到明显的云
0 ft VV 暂时的 垂直能见度

温度 & 天气

温度 3 °C
露点 2 °C
相对湿度 93%
风寒 -1 °C
Kp-index 1 (0-9)

白天

日出
08:24 (5:39)
中午
12:53
日落
17:22

小工具

你想在你的网站上有一个关于Bordeaux-Mérignac Airport的当前航空天气(METAR)的小部件吗?

显示HTML代码

我们和第三方通过cookies跟踪您在我们网站上的互联网行为。如果你继续,我们认为你同意我们的饼干政策